KI5RLR Weather Reports


time (UTC)temp
C
wind
direction
speed
KPH
gust
KPH
rain 1hr
cm
rain 24hr
cm
rain mn
cm
humidity
%
barometer
mb
20240222120816 17 225 9.7 14.5 0.00 0.00 0.00 87 1006.2
20240222115817 17 225 14.5 20.9 0.00 0.00 0.00 87 1006.1
20240222114816 17 225 8.0 12.9 0.00 0.00 0.00 86 1006.3
20240222113816 17 225 9.7 14.5 0.00 0.00 0.00 86 1006.4
20240222112816 17 225 11.3 17.7 0.00 0.00 0.00 86 1006.5
20240222111817 17 225 12.9 19.3 0.00 0.00 0.00 86 1006.5
20240222110816 17 225 9.7 14.5 0.00 0.00 0.00 86 1006.6
20240222105816 17 225 9.7 14.5 0.00 0.00 0.00 86 1006.5
20240222104818 17 225 9.7 14.5 0.00 0.00 0.00 85 1006.4
20240222103816 17 225 9.7 14.5 0.00 0.00 0.00 85 1006.5
20240222102816 17 203 8.0 11.3 0.00 0.00 0.00 85 1006.8
20240222101817 17 225 9.7 12.9 0.00 0.00 0.00 85 1006.8
20240222100816 17 180 9.7 11.3 0.00 0.00 0.00 85 1006.9
20240222095816 17 225 8.0 11.3 0.00 0.00 0.00 85 1006.9
20240222094816 17 203 8.0 11.3 0.00 0.00 0.00 85 1007.1
20240222093816 17 225 8.0 11.3 0.00 0.00 0.00 85 1007.0
20240222092818 17 203 9.7 14.5 0.00 0.00 0.00 85 1007.3
20240222091816 17 225 9.7 12.9 0.00 0.00 0.00 85 1007.3
20240222090816 18 203 8.0 11.3 0.00 0.00 0.00 84 1007.5
20240222085816 18 180 9.7 16.1 0.00 0.00 0.00 84 1007.8
20240222084816 18 180 6.4 9.7 0.00 0.00 0.00 84 1007.9
20240222083817 18 225 8.0 12.9 0.00 0.00 0.00 84 1008.1
20240222082816 18 203 8.0 12.9 0.00 0.00 0.00 83 1008.2
20240222081816 18 225 9.7 12.9 0.00 0.00 0.00 83 1008.2
20240222080816 18 203 11.3 16.1 0.00 0.00 0.00 83 1008.3
20240222075816 18 225 14.5 20.9 0.00 0.00 0.00 82 1008.5
20240222074836 18 225 11.3 16.1 0.00 0.00 0.00 82 1008.5
20240222073816 18 203 14.5 20.9 0.00 0.00 0.00 81 1008.6
20240222072816 18 225 14.5 22.5 0.00 0.00 0.00 81 1008.8
20240222071817 18 225 17.7 24.1 0.00 0.00 0.00 81 1008.7
20240222070818 18 225 19.3 30.6 0.00 0.00 0.00 81 1008.7
20240222065817 18 225 14.5 19.3 0.00 0.00 0.00 82 1008.6
20240222064816 18 225 16.1 22.5 0.00 0.00 0.00 82 1008.7
20240222063816 18 225 9.7 27.4 0.00 0.00 0.00 81 1008.7
20240222062818 18 225 16.1 19.3 0.00 0.00 0.00 81 1008.7
20240222061818 18 203 11.3 19.3 0.00 0.00 0.00 80 1008.7
20240222060816 18 203 17.7 25.7 0.00 0.00 0.00 80 1008.8
20240222055816 18 203 9.7 14.5 0.00 0.00 0.00 79 1008.8
20240222054816 18 225 12.9 24.1 0.00 0.00 0.00 79 1009.0
20240222053816 19 203 8.0 14.5 0.00 0.00 0.00 78 1008.9
20240222052817 19 203 9.7 12.9 0.00 0.00 0.00 78 1009.2
20240222051817 19 225 8.0 16.1 0.00 0.00 0.00 78 1009.3
20240222050816 19 203 11.3 19.3 0.00 0.00 0.00 77 1009.2
20240222045836 20 180 11.3 14.5 0.00 0.00 0.00 76 1009.2
20240222044817 20 180 12.9 19.3 0.00 0.00 0.00 76 1009.1
20240222043817 20 225 9.7 16.1 0.00 0.00 0.00 75 1009.1
20240222042816 20 225 17.7 25.7 0.00 0.00 0.00 75 1008.9
20240222041816 20 225 11.3 16.1 0.00 0.00 0.00 74 1008.8
20240222040817 20 203 9.7 16.1 0.00 0.00 0.00 73 1008.7
20240222035817 20 225 12.9 19.3 0.00 0.00 0.00 73 1008.8
20240222034816 20 180 17.7 25.7 0.00 0.00 0.00 73 1008.7
20240222033816 20 225 12.9 20.9 0.00 0.00 0.00 72 1008.7
20240222032836 21 203 12.9 19.3 0.00 0.00 0.00 72 1008.6
20240222031816 21 225 17.7 29.0 0.00 0.00 0.00 71 1008.6
20240222030819 21 203 11.3 24.1 0.00 0.00 0.00 71 1008.7
20240222025837 21 203 14.5 19.3 0.00 0.00 0.00 70 1008.7
20240222024816 21 203 11.3 17.7 0.00 0.00 0.00 70 1008.7
20240222023816 21 225 9.7 16.1 0.00 0.00 0.00 69 1008.8
20240222022816 21 225 9.7 12.9 0.00 0.00 0.00 69 1008.9
20240222021818 21 225 12.9 16.1 0.00 0.00 0.00 68 1008.9
20240222020817 21 225 9.7 16.1 0.00 0.00 0.00 68 1009.0
20240222015816 21 203 12.9 17.7 0.00 0.00 0.00 67 1008.9
20240222014817 22 203 14.5 19.3 0.00 0.00 0.00 67 1008.8
20240222013816 22 203 12.9 20.9 0.00 0.00 0.00 67 1008.5
20240222012816 22 203 12.9 20.9 0.00 0.00 0.00 66 1008.5
20240222011816 22 203 14.5 22.5 0.00 0.00 0.00 65 1008.2
20240222010816 22 203 11.3 17.7 0.00 0.00 0.00 64 1008.1
20240222005816 22 180 11.3 17.7 0.00 0.00 0.00 62 1008.2
20240222004816 22 203 17.7 27.4 0.00 0.00 0.00 61 1008.1
20240222003816 22 180 17.7 25.7 0.00 0.00 0.00 61 1008.4
20240222002818 22 203 11.3 16.1 0.00 0.00 0.00 60 1008.4
20240222001816 23 203 16.1 20.9 0.00 0.00 0.00 60 1008.6
20240222000836 23 158 16.1 32.2 0.00 0.00 0.00 60 1008.3
20240221235836 23 158 12.9 20.9 0.00 0.00 0.00 61 1008.2
20240221234818 23 203 12.9 24.1 0.00 0.00 0.00 61 1008.2
20240221233816 24 225 9.7 16.1 0.00 0.00 0.00 61 1008.8
20240221232816 25 225 12.9 17.7 0.00 0.00 0.00 59 1008.6
20240221231816 25 158 12.9 22.5 0.00 0.00 0.00 59 1008.4
20240221230816 25 158 12.9 19.3 0.00 0.00 0.00 58 1008.7
20240221225816 25 180 14.5 20.9 0.00 0.00 0.00 57 1008.9
20240221224816 26 180 14.5 24.1 0.00 0.00 0.00 56 1009.2
20240221223815 26 203 12.9 20.9 0.00 0.00 0.00 55 1009.5
20240221222815 27 180 11.3 16.1 0.00 0.00 0.00 53 1009.7
20240221221816 27 180 12.9 19.3 0.00 0.00 0.00 52 1009.8
20240221220836 27 180 16.1 22.5 0.00 0.00 0.00 50 1010.0
20240221215815 27 158 16.1 24.1 0.00 0.00 0.00 50 1010.1
20240221214815 27 225 16.1 25.7 0.00 0.00 0.00 49 1010.3
20240221213822 27 180 14.5 20.9 0.00 0.00 0.00 49 1010.5
20240221212820 27 203 14.5 20.9 0.00 0.00 0.00 49 1010.5
20240221211838 26 203 16.1 20.9 0.00 0.00 0.00 49 1010.9
20240221210838 26 225 12.9 20.9 0.00 0.00 0.00 50 1011.1
20240221205818 26 203 14.5 19.3 0.00 0.00 0.00 51 1011.2
20240221204817 26 225 17.7 24.1 0.00 0.00 0.00 51 1011.5
20240221203817 26 203 19.3 25.7 0.00 0.00 0.00 52 1011.9
20240221202817 26 225 16.1 19.3 0.00 0.00 0.00 53 1012.2
20240221201817 26 225 17.7 30.6 0.00 0.00 0.00 54 1012.4
20240221200817 25 225 16.1 20.9 0.00 0.00 0.00 54 1012.4
20240221195817 25 225 16.1 20.9 0.00 0.00 0.00 55 1012.9
20240221194820 25 180 9.7 16.1 0.00 0.00 0.00 57 1013.0
20240221193817 25 225 17.7 22.5 0.00 0.00 0.00 57 1013.1
20240221192818 25 180 16.1 19.3 0.00 0.00 0.00 58 1013.5
20240221191817 24 203 11.3 16.1 0.00 0.00 0.00 59 1013.7
20240221190837 24 203 17.7 24.1 0.00 0.00 0.00 59 1014.1
20240221185837 23 225 12.9 19.3 0.00 0.00 0.00 61 1014.5
20240221184817 23 225 14.5 24.1 0.00 0.00 0.00 62 1014.9
20240221183818 23 203 11.3 19.3 0.00 0.00 0.00 63 1015.2
20240221182837 23 203 14.5 19.3 0.00 0.00 0.00 64 1015.2
20240221181818 22 225 14.5 19.3 0.00 0.00 0.00 65 1015.5
20240221180817 22 225 19.3 25.7 0.00 0.00 0.00 66 1015.8
20240221175817 22 225 19.3 27.4 0.00 0.00 0.00 66 1016.3
20240221174818 22 248 12.9 17.7 0.00 0.00 0.00 67 1016.1
20240221173818 22 225 12.9 24.1 0.00 0.00 0.00 68 1016.2
20240221172817 21 225 14.5 20.9 0.00 0.00 0.00 70 1016.3
20240221171817 21 180 14.5 17.7 0.00 0.00 0.00 71 1016.3
20240221170837 21 158 19.3 33.8 0.00 0.00 0.00 72 1016.5
20240221165818 20 225 17.7 25.7 0.00 0.00 0.00 73 1016.5
20240221164817 20 225 14.5 17.7 0.00 0.00 0.00 74 1016.6
20240221163817 20 203 14.5 17.7 0.00 0.00 0.00 74 1016.7
20240221162820 19 203 16.1 20.9 0.00 0.00 0.00 76 1016.9
20240221161819 19 158 12.9 19.3 0.00 0.00 0.00 77 1016.9
20240221160817 18 225 12.9 20.9 0.00 0.00 0.00 78 1016.9
20240221155819 18 225 14.5 20.9 0.00 0.00 0.00 78 1017.1
20240221154838 18 203 16.1 22.5 0.00 0.00 0.00 79 1017.2
20240221153817 18 225 14.5 19.3 0.00 0.00 0.00 80 1017.1
20240221152816 18 203 14.5 17.7 0.00 0.00 0.00 82 1016.9
20240221151837 17 225 16.1 20.9 0.00 0.00 0.00 83 1016.9
20240221150817 17 225 14.5 22.5 0.00 0.00 0.00 84 1017.0
20240221145817 17 180 16.1 20.9 0.00 0.00 0.00 85 1016.8
20240221144817 16 225 11.3 16.1 0.00 0.00 0.00 86 1016.7
20240221143838 16 225 9.7 27.4 0.00 0.00 0.00 88 1016.6
20240221142817 16 225 14.5 20.9 0.00 0.00 0.00 88 1016.4
20240221141817 15 225 9.7 14.5 0.00 0.00 0.00 89 1016.2
20240221140816 15 203 11.3 14.5 0.00 0.00 0.00 90 1016.4
20240221135816 15 225 6.4 9.7 0.00 0.00 0.00 90 1016.4
20240221134837 15 225 9.7 12.9 0.00 0.00 0.00 90 1016.4
20240221133817 15 225 6.4 9.7 0.00 0.00 0.00 90 1016.4
20240221132817 15 225 9.7 16.1 0.00 0.00 0.00 90 1016.4
20240221131817 15 225 6.4 9.7 0.00 0.00 0.00 90 1016.4
20240221130816 15 225 9.7 12.9 0.00 0.00 0.00 89 1016.4
20240221125836 15 203 4.8 8.0 0.00 0.00 0.00 89 1016.3
20240221124817 15 203 8.0 12.9 0.00 0.00 0.00 89 1016.2
20240221123816 15 203 8.0 14.5 0.00 0.00 0.00 88 1016.0
20240221122816 15 225 6.4 8.0 0.00 0.00 0.00 88 1016.1
20240221121816 15 225 8.0 9.7 0.00 0.00 0.00 88 1016.1